createdAt,value
2022-09-23T00:01:27.265Z,100.00
2022-09-23T00:06:51.851Z,100.00
2022-09-23T00:12:18.134Z,100.00
2022-09-23T00:17:43.380Z,100.00
2022-09-23T00:23:07.668Z,100.00
2022-09-23T00:28:34.601Z,100.00
2022-09-23T00:34:01.339Z,100.00
2022-09-23T00:39:26.351Z,100.00
2022-09-23T00:44:55.250Z,100.00
2022-09-23T00:50:27.254Z,100.00
2022-09-23T00:55:55.727Z,100.00
2022-09-23T01:01:22.408Z,100.00
2022-09-23T01:06:46.978Z,100.00
2022-09-23T01:12:25.443Z,100.00
2022-09-23T01:18:09.796Z,100.00
2022-09-23T01:24:11.491Z,100.00
2022-09-23T01:30:05.217Z,100.00
2022-09-23T01:35:44.778Z,100.00
2022-09-23T01:41:18.430Z,100.00
2022-09-23T01:46:50.641Z,100.00
2022-09-23T01:52:19.605Z,100.00
2022-09-23T01:57:49.716Z,100.00
2022-09-23T02:03:18.527Z,100.00
2022-09-23T02:08:51.522Z,100.00
2022-09-23T02:14:20.626Z,100.00
2022-09-23T02:19:48.675Z,100.00
2022-09-23T02:25:17.366Z,100.00
2022-09-23T02:30:49.835Z,100.00
2022-09-23T02:36:22.814Z,100.00
2022-09-23T02:41:55.830Z,100.00
2022-09-23T02:47:30.288Z,100.00
2022-09-23T02:52:55.595Z,100.00
2022-09-23T02:58:21.616Z,100.00
2022-09-23T03:03:56.434Z,100.00
2022-09-23T03:09:27.275Z,100.00
2022-09-23T03:14:58.761Z,100.00
2022-09-23T03:20:34.180Z,100.00
2022-09-23T03:26:04.853Z,100.00
2022-09-23T03:31:30.935Z,100.00
2022-09-23T03:37:01.701Z,100.00
2022-09-23T03:42:30.149Z,100.00
2022-09-23T03:47:57.652Z,100.00
2022-09-23T03:53:23.574Z,100.00
2022-09-23T03:58:48.979Z,100.00
2022-09-23T04:04:14.981Z,100.00
2022-09-23T04:09:39.652Z,100.00
2022-09-23T04:15:05.167Z,100.00
2022-09-23T04:20:30.592Z,100.00
2022-09-23T04:25:55.676Z,100.00
2022-09-23T04:31:19.902Z,100.00
2022-09-23T04:36:48.431Z,100.00
2022-09-23T04:42:12.658Z,100.00
2022-09-23T04:47:37.998Z,100.00
2022-09-23T04:53:03.378Z,100.00
2022-09-23T04:58:28.704Z,100.00
2022-09-23T05:03:54.751Z,100.00
2022-09-23T05:09:20.337Z,98.77
2022-09-23T05:14:44.804Z,90.67
2022-09-23T05:20:10.489Z,82.70
2022-09-23T05:25:39.146Z,70.22
2022-09-23T05:31:04.438Z,64.29
2022-09-23T05:36:34.332Z,59.78
2022-09-23T05:42:02.572Z,56.30
2022-09-23T05:47:27.249Z,54.59
2022-09-23T05:52:53.106Z,52.84
2022-09-23T05:58:19.353Z,52.42
2022-09-23T06:03:46.861Z,51.93
2022-09-23T06:09:14.899Z,48.06
2022-09-23T06:14:40.348Z,46.90
2022-09-23T06:20:05.136Z,46.05
2022-09-23T06:25:32.676Z,45.82
2022-09-23T06:31:00.581Z,42.17
2022-09-23T06:36:41.209Z,41.24
2022-09-23T06:42:08.307Z,44.57
2022-09-23T06:47:34.118Z,50.37
2022-09-23T06:53:01.203Z,52.67
2022-09-23T06:58:26.877Z,54.82
2022-09-23T07:03:52.525Z,51.72
2022-09-23T07:09:17.500Z,49.90
2022-09-23T07:14:42.108Z,49.28
2022-09-23T07:20:08.850Z,52.22
2022-09-23T07:25:34.277Z,52.17
2022-09-23T07:31:04.559Z,46.84
2022-09-23T07:36:32.901Z,44.79
2022-09-23T07:41:58.087Z,40.35
2022-09-23T07:47:26.908Z,39.26
2022-09-23T07:52:53.671Z,37.77
2022-09-23T07:58:18.290Z,35.36
2022-09-23T08:03:43.979Z,33.22
2022-09-23T08:09:14.599Z,31.94
2022-09-23T08:14:39.757Z,33.51
2022-09-23T08:20:06.529Z,36.07
2022-09-23T08:25:34.771Z,37.33
2022-09-23T08:30:59.408Z,40.67
2022-09-23T08:36:24.291Z,42.67
2022-09-23T08:42:07.363Z,43.22
2022-09-23T08:47:41.442Z,41.45
2022-09-23T08:53:09.583Z,37.34
2022-09-23T08:58:46.319Z,33.99
2022-09-23T09:04:19.293Z,36.24
2022-09-23T09:09:49.078Z,39.27
2022-09-23T09:15:19.567Z,42.17
2022-09-23T09:20:54.924Z,41.63
2022-09-23T09:26:24.410Z,41.38
2022-09-23T09:31:51.986Z,42.16
2022-09-23T09:37:21.977Z,42.63
2022-09-23T09:42:49.862Z,42.64
2022-09-23T09:48:22.707Z,44.82
2022-09-23T09:53:47.300Z,46.50
2022-09-23T09:59:17.578Z,47.33
2022-09-23T10:04:43.912Z,47.34
2022-09-23T10:10:32.562Z,46.42
2022-09-23T10:15:59.602Z,46.21
2022-09-23T10:21:33.297Z,44.86
2022-09-23T10:27:07.710Z,44.77
2022-09-23T10:32:40.046Z,45.07
2022-09-23T10:38:06.045Z,42.08
2022-09-23T10:43:57.578Z,42.07
2022-09-23T10:50:08.061Z,40.97
2022-09-23T10:55:57.250Z,43.21
2022-09-23T11:01:31.065Z,42.48
2022-09-23T11:07:10.473Z,40.67
2022-09-23T11:12:46.470Z,38.50
2022-09-23T11:18:45.901Z,37.69
2022-09-23T11:24:58.541Z,36.35
2022-09-23T11:30:32.276Z,37.46
2022-09-23T11:36:02.727Z,35.89
2022-09-23T11:41:31.288Z,34.36
2022-09-23T11:47:02.994Z,34.38
2022-09-23T11:52:33.167Z,33.21
2022-09-23T11:58:01.893Z,32.54
2022-09-23T12:03:44.386Z,33.25
2022-09-23T12:09:18.101Z,30.30
2022-09-23T12:14:55.341Z,32.09
2022-09-23T12:20:44.628Z,31.07
2022-09-23T12:26:17.214Z,31.29
2022-09-23T12:31:46.762Z,31.46
2022-09-23T12:37:13.780Z,32.33
2022-09-23T12:42:47.115Z,32.41
2022-09-23T12:48:45.358Z,32.77
2022-09-23T12:54:25.739Z,31.91
2022-09-23T12:59:59.747Z,32.27
2022-09-23T13:05:47.174Z,33.13
2022-09-23T13:11:23.841Z,33.25
2022-09-23T13:16:50.409Z,34.07
2022-09-23T13:22:42.832Z,34.59
2022-09-23T13:28:28.521Z,34.63
2022-09-23T13:34:01.888Z,35.67
2022-09-23T13:39:28.578Z,35.39
2022-09-23T13:44:57.897Z,36.29
2022-09-23T13:50:24.844Z,36.51
2022-09-23T13:56:01.559Z,37.33
2022-09-23T14:01:33.751Z,37.77
2022-09-23T14:07:04.120Z,39.93
2022-09-23T14:12:28.959Z,40.89
2022-09-23T14:18:03.348Z,41.35
2022-09-23T14:23:28.285Z,41.41
2022-09-23T14:28:54.020Z,42.02
2022-09-23T14:34:42.461Z,43.23
2022-09-23T14:40:11.384Z,43.89
2022-09-23T14:45:38.551Z,45.26
2022-09-23T14:51:10.940Z,46.47
2022-09-23T14:56:43.025Z,47.94
2022-09-23T15:02:35.583Z,48.44
2022-09-23T15:08:03.900Z,49.00
2022-09-23T15:13:31.060Z,49.39
2022-09-23T15:18:57.743Z,50.04
2022-09-23T15:24:41.463Z,50.84
2022-09-23T15:30:17.189Z,51.56
2022-09-23T15:35:46.486Z,52.26
2022-09-23T15:41:12.069Z,53.42
2022-09-23T15:46:38.351Z,54.41
2022-09-23T15:52:04.795Z,55.33
2022-09-23T15:57:30.607Z,57.70
2022-09-23T16:02:55.317Z,58.90
2022-09-23T16:08:23.406Z,61.49
2022-09-23T16:13:50.532Z,63.29
2022-09-23T16:19:16.027Z,63.89
2022-09-23T16:24:41.416Z,63.77
2022-09-23T16:30:09.072Z,62.88
2022-09-23T16:35:34.808Z,61.72
2022-09-23T16:41:00.809Z,60.00
2022-09-23T16:46:27.192Z,59.03
2022-09-23T16:51:52.257Z,57.43
2022-09-23T16:57:16.646Z,56.93
2022-09-23T17:03:00.418Z,56.36
2022-09-23T17:08:25.101Z,56.75
2022-09-23T17:13:50.714Z,55.50
2022-09-23T17:19:17.523Z,56.11
2022-09-23T17:24:45.612Z,56.90
2022-09-23T17:30:10.622Z,58.02
2022-09-23T17:35:36.206Z,58.68
2022-09-23T17:41:01.335Z,60.29
2022-09-23T17:46:25.809Z,60.34
2022-09-23T17:51:51.879Z,60.46
2022-09-23T17:57:17.765Z,60.39
2022-09-23T18:02:43.913Z,61.28
2022-09-23T18:08:09.938Z,62.64
2022-09-23T18:13:35.213Z,64.03
2022-09-23T18:19:01.349Z,64.72
2022-09-23T18:24:33.509Z,66.11
2022-09-23T18:29:59.002Z,68.59
2022-09-23T18:35:23.694Z,69.16
2022-09-23T18:40:56.011Z,70.27
2022-09-23T18:46:22.132Z,70.96
2022-09-23T18:51:51.904Z,71.63
2022-09-23T18:57:17.197Z,73.16
2022-09-23T19:02:43.104Z,73.46
2022-09-23T19:08:08.929Z,74.65
2022-09-23T19:13:35.809Z,74.31
2022-09-23T19:19:01.006Z,75.78
2022-09-23T19:24:25.099Z,76.96
2022-09-23T19:29:51.232Z,77.92
2022-09-23T19:35:16.078Z,78.85
2022-09-23T19:40:40.141Z,79.82
2022-09-23T19:46:07.333Z,80.98
2022-09-23T19:51:34.053Z,82.83
2022-09-23T19:56:58.302Z,84.74
2022-09-23T20:02:23.835Z,85.80
2022-09-23T20:07:48.337Z,85.29
2022-09-23T20:13:14.644Z,84.74
2022-09-23T20:18:40.767Z,84.69
2022-09-23T20:24:07.637Z,85.96
2022-09-23T20:29:31.904Z,87.20
2022-09-23T20:34:58.112Z,88.25
2022-09-23T20:40:23.145Z,89.50
2022-09-23T20:45:51.137Z,91.27
2022-09-23T20:51:16.545Z,93.24
2022-09-23T20:56:40.641Z,94.99
2022-09-23T21:02:06.621Z,96.10
2022-09-23T21:07:32.093Z,96.48
2022-09-23T21:12:56.107Z,96.42
2022-09-23T21:18:22.600Z,96.46
2022-09-23T21:23:50.785Z,96.81
2022-09-23T21:29:16.461Z,96.10
2022-09-23T21:34:40.826Z,96.20
2022-09-23T21:40:25.049Z,96.36
2022-09-23T21:45:49.737Z,96.66
2022-09-23T21:51:16.051Z,96.65
2022-09-23T21:56:41.768Z,96.04
2022-09-23T22:02:06.226Z,95.91
2022-09-23T22:07:32.094Z,95.80
2022-09-23T22:12:57.634Z,96.64
2022-09-23T22:18:22.126Z,96.87
2022-09-23T22:23:46.626Z,97.26
2022-09-23T22:29:31.814Z,97.38
2022-09-23T22:34:57.923Z,98.00
2022-09-23T22:40:24.219Z,98.90
2022-09-23T22:45:51.841Z,99.35
2022-09-23T22:51:16.066Z,100.00
2022-09-23T22:56:44.007Z,100.00
2022-09-23T23:02:09.826Z,100.00
2022-09-23T23:07:36.239Z,100.00
2022-09-23T23:13:01.743Z,100.00
2022-09-23T23:18:32.732Z,100.00
2022-09-23T23:23:57.736Z,100.00
2022-09-23T23:29:23.344Z,100.00
2022-09-23T23:34:48.680Z,100.00
2022-09-23T23:40:12.920Z,100.00
2022-09-23T23:45:37.170Z,100.00
2022-09-23T23:51:06.903Z,100.00
2022-09-23T23:56:32.636Z,100.00
